Time;durP1;ratioP1;P1;durP2;ratioP2;P2;SDS_P1;SDS_P2;PMS_P1;PMS_P2;Temp;Humidity;BMP_temperature;BMP_pressure;BME280_temperature;BME280_humidity;BME280_pressure;Samples;Min_cycle;Max_cycle;Signal;HPM_P1;HPM_P2
2021/11/09 00:01:23;;;;;;;;;56.00;45.75;;;;;-147.17;100.00;50119.59;5087279;27;51413;-70
2021/11/09 00:03:58;;;;;;;;;54.50;45.00;;;;;-147.17;100.00;50111.72;5073112;28;51133;-69
2021/11/09 00:06:28;;;;;;;;;55.00;46.25;;;;;-147.17;100.00;50095.97;5074374;28;51090;-69
2021/11/09 00:08:59;;;;;;;;;54.00;45.25;;;;;-147.17;100.00;50095.97;5074579;28;51044;-70
2021/11/09 00:11:26;;;;;;;;;51.75;43.25;;;;;-147.17;100.00;50105.81;5073866;28;51162;-68
2021/11/09 00:13:52;;;;;;;;;51.75;44.25;;;;;-147.17;100.00;50080.25;5073227;28;51185;-67
2021/11/09 00:16:19;;;;;;;;;48.50;41.25;;;;;-147.17;100.00;50107.78;5073417;28;51334;-67
2021/11/09 00:18:48;;;;;;;;;56.25;46.25;;;;;-147.17;100.00;50101.88;5074241;28;51088;-67
2021/11/09 00:21:15;;;;;;;;;47.25;39.75;;;;;-147.17;100.00;50082.22;5073057;28;51063;-67
2021/11/09 00:23:41;;;;;;;;;56.00;44.50;;;;;-147.17;100.00;50056.63;5072528;28;51244;-66
2021/11/09 00:26:07;;;;;;;;;58.50;48.75;;;;;-147.17;100.00;50099.91;5074189;28;51153;-66
2021/11/09 00:28:33;;;;;;;;;56.75;47.50;;;;;-147.17;100.00;50088.13;5073069;28;51883;-66
2021/11/09 00:30:58;;;;;;;;;59.25;48.75;;;;;-147.17;100.00;50092.03;5074625;28;51060;-67
2021/11/09 00:33:24;;;;;;;;;56.25;48.00;;;;;-147.17;100.00;50056.63;5072198;28;51387;-67
2021/11/09 00:35:49;;;;;;;;;56.00;47.00;;;;;-147.17;100.00;50080.25;5055746;28;51108;-68
2021/11/09 00:38:15;;;;;;;;;50.50;43.00;;;;;-147.17;100.00;50058.59;5072657;28;53711;-65
2021/11/09 00:40:42;;;;;;;;;58.50;48.00;;;;;-147.17;100.00;50076.31;5073412;28;51066;-67
2021/11/09 00:43:11;;;;;;;;;58.75;49.00;;;;;-147.17;100.00;50090.09;5074121;28;51171;-67
2021/11/09 00:45:36;;;;;;;;;56.75;48.50;;;;;-147.17;100.00;50062.53;5073297;28;51188;-67
2021/11/09 00:48:03;;;;;;;;;58.75;49.00;;;;;-147.17;100.00;50078.28;5073519;28;51806;-67
2021/11/09 00:50:30;;;;;;;;;56.75;47.00;;;;;-147.17;100.00;50062.53;5072559;28;51026;-67
2021/11/09 00:52:56;;;;;;;;;60.50;49.50;;;;;-147.17;100.00;50086.16;5055115;28;51220;-67
2021/11/09 00:55:23;;;;;;;;;59.75;48.00;;;;;-147.17;100.00;50068.44;5070400;28;51148;-67
2021/11/09 00:57:49;;;;;;;;;59.00;49.25;;;;;-147.17;100.00;50095.97;5073218;28;52083;-67
2021/11/09 01:00:18;;;;;;;;;61.00;49.75;;;;;-147.17;100.00;50086.16;5072648;28;50968;-67
2021/11/09 01:02:45;;;;;;;;;61.50;50.25;;;;;-147.17;100.00;50076.31;5075279;27;51105;-67
2021/11/09 01:05:12;;;;;;;;;61.50;50.00;;;;;-147.17;100.00;50086.16;5072876;28;51287;-67
2021/11/09 01:07:37;;;;;;;;;59.00;49.00;;;;;-147.17;100.00;50070.41;5073735;28;52003;-66
2021/11/09 01:10:06;;;;;;;;;60.25;47.75;;;;;-147.17;100.00;50080.25;5054262;28;51017;-66
2021/11/09 01:12:31;;;;;;;;;49.00;41.75;;;;;-147.17;100.00;50099.91;5056656;28;51322;-67
2021/11/09 01:14:57;;;;;;;;;60.00;49.50;;;;;-147.17;100.00;50119.59;5072219;28;51271;-67
2021/11/09 01:17:23;;;;;;;;;53.00;45.50;;;;;-147.17;100.00;50123.53;5073909;28;52101;-67
2021/11/09 01:19:49;;;;;;;;;56.25;47.75;;;;;-147.17;100.00;50101.88;5072470;28;51193;-67
2021/11/09 01:22:14;;;;;;;;;55.50;46.00;;;;;-147.17;100.00;50078.28;5073804;28;51163;-67
2021/11/09 01:24:40;;;;;;;;;53.00;43.00;;;;;-147.17;100.00;50086.16;5073143;28;50930;-66
2021/11/09 01:27:06;;;;;;;;;53.00;44.75;;;;;-147.17;100.00;50109.75;5071013;28;51985;-68
2021/11/09 01:29:31;;;;;;;;;60.25;50.00;;;;;-147.17;100.00;50103.84;5052959;28;51053;-67
2021/11/09 01:31:57;;;;;;;;;57.00;48.00;;;;;-147.17;100.00;50127.47;5072980;28;51044;-67
2021/11/09 01:34:23;;;;;;;;;65.50;52.25;;;;;-147.17;100.00;50135.34;5072822;28;51022;-67
2021/11/09 01:36:48;;;;;;;;;61.75;50.00;;;;;-147.17;100.00;50113.69;5072858;28;50956;-67
2021/11/09 01:39:14;;;;;;;;;59.50;49.75;;;;;-147.17;100.00;50101.88;5072349;28;50980;-67
2021/11/09 01:41:40;;;;;;;;;61.00;49.25;;;;;-147.17;100.00;50097.94;5073272;28;51071;-67
2021/11/09 01:44:06;;;;;;;;;62.75;51.25;;;;;-147.17;100.00;50090.09;5072088;28;51025;-67
2021/11/09 01:46:32;;;;;;;;;58.00;48.75;;;;;-147.17;100.00;50113.69;5071562;28;51045;-67
2021/11/09 01:48:58;;;;;;;;;59.75;49.25;;;;;-147.17;100.00;50082.22;5071832;28;51161;-67
2021/11/09 01:51:25;;;;;;;;;57.50;48.25;;;;;-147.17;100.00;50115.66;5072409;28;51220;-67
2021/11/09 01:53:53;;;;;;;;;64.00;51.75;;;;;-147.17;100.00;50123.53;5071158;28;50931;-66
2021/11/09 01:56:22;;;;;;;;;59.25;50.25;;;;;-147.17;100.00;50095.97;5072204;28;51501;-67
2021/11/09 01:58:48;;;;;;;;;63.25;52.25;;;;;-147.17;100.00;50115.66;5071947;28;51097;-67
2021/11/09 02:01:17;;;;;;;;;61.25;50.50;;;;;-147.17;100.00;50092.03;5072170;27;51109;-67
2021/11/09 02:03:46;;;;;;;;;63.00;51.25;;;;;-147.17;100.00;50103.84;5070278;28;52652;-67
2021/11/09 02:06:14;;;;;;;;;60.75;50.25;;;;;-147.17;100.00;50092.03;5071522;28;52125;-67
2021/11/09 02:08:41;;;;;;;;;61.25;49.50;;;;;-147.17;100.00;50092.03;5071711;28;51068;-67
2021/11/09 02:11:07;;;;;;;;;62.75;50.00;;;;;-147.17;100.00;50103.84;5072977;28;50984;-67
2021/11/09 02:13:33;;;;;;;;;63.50;52.50;;;;;-147.17;100.00;50115.66;5071950;28;50915;-66
2021/11/09 02:15:59;;;;;;;;;58.50;48.25;;;;;-147.17;100.00;50099.91;5072061;28;51057;-66
2021/11/09 02:18:26;;;;;;;;;63.00;49.25;;;;;-147.17;100.00;50109.75;5072732;28;51132;-66
2021/11/09 02:21:03;;;;;;;;;58.50;48.25;;;;;-147.17;100.00;50133.38;5053151;28;51211;-66
2021/11/09 02:23:31;;;;;;;;;63.00;52.00;;;;;-147.17;100.00;50119.59;5071114;28;51212;-67
2021/11/09 02:25:57;;;;;;;;;58.75;49.00;;;;;-147.17;100.00;50095.97;5071795;28;51015;-67
2021/11/09 02:28:23;;;;;;;;;61.50;52.25;;;;;-147.17;100.00;50099.91;5071462;28;51090;-67
2021/11/09 02:30:48;;;;;;;;;64.00;51.50;;;;;-147.17;100.00;50092.03;5072490;28;51405;-67
2021/11/09 02:33:15;;;;;;;;;58.50;49.50;;;;;-147.17;100.00;50070.41;5070975;28;51199;-67
2021/11/09 02:35:40;;;;;;;;;65.00;52.50;;;;;-147.17;100.00;50109.75;5072429;28;52501;-66
2021/11/09 02:38:06;;;;;;;;;65.00;51.50;;;;;-147.17;100.00;50084.19;5073356;27;51046;-66
2021/11/09 02:40:32;;;;;;;;;62.00;51.50;;;;;-147.17;100.00;50092.03;5072099;28;51190;-66
2021/11/09 02:43:03;;;;;;;;;65.25;52.75;;;;;-147.17;100.00;50113.69;5072291;28;51151;-66
2021/11/09 02:45:44;;;;;;;;;67.25;55.00;;;;;-147.17;100.00;50111.72;5072513;28;51038;-66
2021/11/09 02:48:14;;;;;;;;;66.25;53.75;;;;;-147.17;100.00;50125.50;5072309;28;51228;-66
2021/11/09 02:50:44;;;;;;;;;65.25;52.25;;;;;-147.17;100.00;50103.84;5072831;28;51202;-66
2021/11/09 02:53:14;;;;;;;;;66.50;54.00;;;;;-147.17;100.00;50109.75;5072078;28;51291;-66
2021/11/09 02:55:44;;;;;;;;;65.75;54.50;;;;;-147.17;100.00;50086.16;5063398;28;51158;-65
2021/11/09 03:03:44;;;;;;;;;63.50;52.00;;;;;-147.17;100.00;50066.47;5036421;28;51323;-67
2021/11/09 03:09:21;;;;;;;;;66.50;54.25;;;;;-147.17;100.00;50080.25;5032998;28;51168;-66
2021/11/09 03:11:53;;;;;;;;;67.75;54.50;;;;;-147.17;100.00;50099.91;5040718;28;51144;-67
2021/11/09 03:14:20;;;;;;;;;66.75;54.00;;;;;-147.17;100.00;50097.94;5055792;28;51081;-66
2021/11/09 03:16:46;;;;;;;;;65.25;52.50;;;;;-147.17;100.00;50105.81;5056960;28;54109;-67
2021/11/09 03:44:21;;;;;;;;;70.00;57.25;;;;;-147.17;100.00;50099.91;5071527;28;51215;-66
2021/11/09 03:46:53;;;;;;;;;69.50;56.25;;;;;-147.17;100.00;50092.03;5074767;28;51306;-68
2021/11/09 03:49:20;;;;;;;;;47.50;40.00;;;;;-147.17;100.00;50080.25;5057421;28;51476;-67
2021/11/09 03:51:46;;;;;;;;;67.25;53.75;;;;;-147.17;100.00;50111.72;5068859;27;52320;-66
2021/11/09 03:54:15;;;;;;;;;66.25;54.50;;;;;-147.17;100.00;50103.84;5074199;28;51097;-67
2021/11/09 03:56:52;;;;;;;;;67.50;55.00;;;;;-147.17;100.00;50105.81;5069948;27;51064;-67
2021/11/09 03:59:28;;;;;;;;;73.50;58.25;;;;;-147.17;100.00;50135.34;5074410;28;51951;-67
2021/11/09 04:04:44;;;;;;;;;68.50;55.25;;;;;-147.17;100.00;50127.47;5073521;28;51266;-67
2021/11/09 04:07:21;;;;;;;;;67.25;55.00;;;;;-147.17;100.00;50103.84;5075842;28;51207;-66
2021/11/09 04:12:36;;;;;;;;;68.25;55.00;;;;;-147.17;100.00;50131.41;5075323;28;50849;-65
2021/11/09 04:15:19;;;;;;;;;67.75;54.75;;;;;-147.17;100.00;50141.25;5073509;28;51121;-66
2021/11/09 04:20:35;;;;;;;;;67.50;54.25;;;;;-147.17;100.00;50151.09;5064300;28;51119;-66
2021/11/09 05:02:45;;;;;;;;;67.50;53.50;;;;;-147.17;100.00;50131.41;5072025;27;51606;-66
2021/11/09 05:10:41;;;;;;;;;71.00;56.00;;;;;-147.17;100.00;50133.38;5071110;28;51069;-66
2021/11/09 05:13:06;;;;;;;;;69.50;57.00;;;;;-147.17;100.00;50123.53;5072885;28;50977;-66
2021/11/09 05:15:33;;;;;;;;;69.25;56.00;;;;;-147.17;100.00;50145.19;5055413;28;51366;-67
2021/11/09 05:17:58;;;;;;;;;70.25;56.75;;;;;-147.17;100.00;50155.03;5072147;28;51311;-67
2021/11/09 05:20:27;;;;;;;;;64.25;53.25;;;;;-147.17;100.00;50113.69;5070660;28;51227;-66
2021/11/09 05:22:53;;;;;;;;;63.25;50.00;;;;;-147.17;100.00;50135.34;5072339;28;51998;-67
2021/11/09 05:25:20;;;;;;;;;72.75;58.00;;;;;-147.17;100.00;50129.44;5055423;28;51055;-67
2021/11/09 05:27:48;;;;;;;;;68.75;55.00;;;;;-147.17;100.00;50143.22;5072240;28;51045;-67
2021/11/09 05:30:15;;;;;;;;;71.75;57.50;;;;;-147.17;100.00;50127.47;5073307;28;50899;-66
2021/11/09 05:32:41;;;;;;;;;65.75;53.50;;;;;-147.17;100.00;50137.31;5074390;28;51896;-66
2021/11/09 05:35:07;;;;;;;;;74.25;59.00;;;;;-147.17;100.00;50127.47;5073141;28;51208;-66
2021/11/09 05:37:39;;;;;;;;;74.00;59.75;;;;;-147.17;100.00;50123.53;5074571;28;50998;-66
2021/11/09 05:40:05;;;;;;;;;69.25;54.75;;;;;-147.17;100.00;50131.41;5051726;28;51382;-66
2021/11/09 05:42:32;;;;;;;;;72.25;59.50;;;;;-147.17;100.00;50113.69;5055287;28;51318;-68
2021/11/09 05:44:58;;;;;;;;;68.50;57.00;;;;;-147.17;100.00;50090.09;5073306;28;51093;-66
2021/11/09 05:47:23;;;;;;;;;70.00;57.25;;;;;-147.17;100.00;50109.75;5073280;28;51181;-66
2021/11/09 05:49:49;;;;;;;;;66.75;55.25;;;;;-147.17;100.00;50095.97;5070630;28;51474;-67
2021/11/09 05:52:14;;;;;;;;;67.75;57.00;;;;;-147.17;100.00;50088.13;5053450;28;52739;-67
2021/11/09 05:54:40;;;;;;;;;67.25;54.25;;;;;-147.17;100.00;50141.25;5070460;28;51113;-66
2021/11/09 05:57:05;;;;;;;;;66.00;54.00;;;;;-147.17;100.00;50097.94;5071379;28;51677;-66
2021/11/09 05:59:31;;;;;;;;;67.75;54.50;;;;;-147.17;100.00;50123.53;5071901;28;51254;-66
2021/11/09 06:01:56;;;;;;;;;68.25;54.75;;;;;-147.17;100.00;50113.69;5070191;27;51321;-67
2021/11/09 06:04:21;;;;;;;;;65.00;54.25;;;;;-147.17;100.00;50107.78;5071983;28;50865;-66
2021/11/09 06:06:47;;;;;;;;;62.75;51.00;;;;;-147.17;100.00;50127.47;5072075;28;50953;-68
2021/11/09 06:09:12;;;;;;;;;62.50;51.25;;;;;-147.17;100.00;50115.66;5053921;28;51591;-67
2021/11/09 06:11:37;;;;;;;;;60.75;50.00;;;;;-147.17;100.00;50127.47;5071443;28;51108;-67
2021/11/09 06:14:03;;;;;;;;;61.50;50.50;;;;;-147.17;100.00;50117.63;5072687;28;51103;-66
2021/11/09 06:16:29;;;;;;;;;60.25;50.50;;;;;-147.17;100.00;50105.81;5071873;28;51110;-66
2021/11/09 06:18:54;;;;;;;;;61.50;51.25;;;;;-147.17;100.00;50119.59;5054505;28;51411;-66
2021/11/09 06:21:20;;;;;;;;;63.00;50.50;;;;;-147.17;100.00;50133.38;5072545;28;51408;-66
2021/11/09 06:23:45;;;;;;;;;58.25;48.25;;;;;-147.17;100.00;50149.13;5072419;28;50939;-67
2021/11/09 06:26:11;;;;;;;;;57.25;47.75;;;;;-147.17;100.00;50113.69;5054259;28;51318;-66
2021/11/09 06:28:40;;;;;;;;;58.75;49.50;;;;;-147.17;100.00;50147.16;5071687;28;51436;-66
2021/11/09 06:31:05;;;;;;;;;60.25;51.00;;;;;-147.17;100.00;50131.41;5073347;28;53851;-66
2021/11/09 06:33:32;;;;;;;;;59.50;49.50;;;;;-147.17;100.00;50135.34;5074806;28;51054;-66
2021/11/09 06:35:57;;;;;;;;;57.25;48.00;;;;;-147.17;100.00;50119.59;5075901;28;51037;-67
2021/11/09 06:38:23;;;;;;;;;58.75;50.00;;;;;-147.17;100.00;50139.28;5063008;28;51415;-67
2021/11/09 06:40:49;;;;;;;;;59.00;49.00;;;;;-147.17;100.00;50119.59;5073470;28;51149;-67
2021/11/09 06:43:15;;;;;;;;;51.50;44.75;;;;;-147.17;100.00;50103.84;5046075;28;50993;-66
2021/11/09 06:45:41;;;;;;;;;54.50;45.25;;;;;-147.17;100.00;50095.97;5054650;28;50984;-67
2021/11/09 06:48:06;;;;;;;;;60.75;49.25;;;;;-147.17;100.00;50105.81;5055571;28;51027;-67
2021/11/09 06:50:32;;;;;;;;;59.25;48.25;;;;;-147.17;100.00;50127.47;5070279;28;51132;-67
2021/11/09 06:52:58;;;;;;;;;59.75;49.25;;;;;-147.17;100.00;50115.66;5074830;28;51168;-67
2021/11/09 06:55:24;;;;;;;;;55.25;47.25;;;;;-147.17;100.00;50095.97;5063108;28;51283;-66
2021/11/09 06:57:50;;;;;;;;;53.50;45.75;;;;;-147.17;100.00;50119.59;5073943;28;51108;-66
2021/11/09 07:00:18;;;;;;;;;59.25;49.50;;;;;-147.17;100.00;50119.59;5074854;28;52199;-66
2021/11/09 07:02:45;;;;;;;;;38.75;35.25;;;;;-147.17;100.00;50131.41;5074173;27;50908;-67
2021/11/09 07:05:11;;;;;;;;;58.25;47.75;;;;;-147.17;100.00;50119.59;5074828;28;51156;-66
2021/11/09 07:07:36;;;;;;;;;54.50;45.00;;;;;-147.17;100.00;50092.03;5074912;28;51109;-67
2021/11/09 07:10:04;;;;;;;;;57.75;47.75;;;;;-147.17;100.00;50111.72;5075065;28;51039;-67
2021/11/09 07:12:30;;;;;;;;;55.75;45.25;;;;;-147.17;100.00;50147.16;5057018;28;52238;-67
2021/11/09 07:14:55;;;;;;;;;58.00;47.75;;;;;-147.17;100.00;50111.72;5088382;27;51177;-67
2021/11/09 07:17:21;;;;;;;;;56.00;44.25;;;;;-147.17;100.00;50139.28;5066118;28;51010;-67
2021/11/09 07:19:50;;;;;;;;;51.25;43.75;;;;;-147.17;100.00;50127.47;5038299;28;52988;-67
2021/11/09 07:22:16;;;;;;;;;49.25;42.50;;;;;-147.17;100.00;50127.47;5059759;28;50909;-67
2021/11/09 07:24:42;;;;;;;;;44.25;39.50;;;;;-147.17;100.00;50105.81;5073558;28;51015;-66
2021/11/09 07:27:08;;;;;;;;;47.75;43.50;;;;;-147.17;100.00;50127.47;5073672;28;51086;-65
2021/11/09 07:29:34;;;;;;;;;49.75;43.50;;;;;-147.17;100.00;50107.78;5074145;28;51151;-66
2021/11/09 07:31:59;;;;;;;;;49.00;42.50;;;;;-147.17;100.00;50139.28;5073946;28;51058;-66
2021/11/09 07:34:25;;;;;;;;;54.75;44.25;;;;;-147.17;100.00;50123.53;5068688;28;51641;-65
2021/11/09 07:36:51;;;;;;;;;53.75;44.50;;;;;-147.17;100.00;50158.97;5073686;28;51317;-64
2021/11/09 07:39:16;;;;;;;;;53.75;43.50;;;;;-147.17;100.00;50135.34;5073687;28;51093;-67
2021/11/09 07:41:42;;;;;;;;;49.25;42.50;;;;;-147.17;100.00;50178.66;5074291;28;50927;-65
2021/11/09 07:44:08;;;;;;;;;50.25;40.00;;;;;-147.17;100.00;50147.16;5073399;28;51028;-67
2021/11/09 07:46:34;;;;;;;;;45.50;38.50;;;;;-147.17;100.00;50151.09;5074703;28;51173;-66
2021/11/09 07:49:03;;;;;;;;;47.25;39.50;;;;;-147.17;100.00;50135.34;5074111;28;51132;-65
2021/11/09 07:51:29;;;;;;;;;47.25;39.00;;;;;-147.17;100.00;50160.94;5060714;28;51124;-68
2021/11/09 07:53:57;;;;;;;;;58.75;47.25;;;;;-147.17;100.00;50135.34;5069087;27;52566;-63
2021/11/09 07:56:26;;;;;;;;;43.75;39.25;;;;;-147.17;100.00;50151.09;5074101;28;51198;-65
2021/11/09 08:01:45;;;;;;;;;56.50;45.25;;;;;-147.17;100.00;50139.28;5074269;27;50974;-65
2021/11/09 08:04:24;;;;;;;;;38.00;34.50;;;;;-147.17;100.00;50170.78;5058168;28;51140;-65
2021/11/09 08:11:48;;;;;;;;;42.00;38.75;;;;;-147.17;100.00;50176.69;5073772;28;51062;-65
2021/11/09 08:14:14;;;;;;;;;46.50;40.00;;;;;-147.17;100.00;50107.78;5055128;28;51023;-67
2021/11/09 08:16:41;;;;;;;;;38.00;35.00;;;;;-147.17;100.00;50129.44;5074444;28;50999;-66
2021/11/09 08:19:07;;;;;;;;;43.75;40.25;;;;;-147.17;100.00;50143.22;5055403;28;54050;-65
2021/11/09 08:21:33;;;;;;;;;45.50;40.00;;;;;-147.17;100.00;50139.28;5073608;28;51106;-67
2021/11/09 08:24:00;;;;;;;;;44.00;39.50;;;;;-147.17;100.00;50127.47;5072767;28;51086;-66
2021/11/09 08:26:26;;;;;;;;;53.00;44.50;;;;;-147.17;100.00;50072.38;5074070;28;51365;-67
2021/11/09 08:28:54;;;;;;;;;51.25;42.00;;;;;-147.17;100.00;50111.72;5073518;28;52064;-67
2021/11/09 08:31:22;;;;;;;;;52.25;42.00;;;;;-147.17;100.00;50127.47;5073492;28;51105;-65
2021/11/09 08:33:49;;;;;;;;;53.25;42.50;;;;;-147.17;100.00;50157.00;5073926;28;50933;-67
2021/11/09 08:36:16;;;;;;;;;44.25;39.00;;;;;-147.17;100.00;50194.41;5072616;28;51007;-67
2021/11/09 08:38:46;;;;;;;;;45.75;39.00;;;;;-147.17;100.00;50182.59;5073018;27;52160;-67
2021/11/09 08:41:12;;;;;;;;;41.25;38.00;;;;;-147.17;100.00;50247.56;5073387;28;51030;-66
2021/11/09 08:43:40;;;;;;;;;41.25;35.75;;;;;-147.17;100.00;50233.78;5074094;28;51151;-67
2021/11/09 08:48:40;;;;;;;;;43.50;38.00;;;;;-147.17;100.00;50261.34;5073597;28;51627;-66
2021/11/09 08:51:11;;;;;;;;;52.00;45.00;;;;;-147.17;100.00;50281.03;5088512;27;51008;-68
2021/11/09 09:04:12;;;;;;;;;33.75;31.25;;;;;-147.17;100.00;50283.00;5072719;28;51155;-68
2021/11/09 09:06:37;;;;;;;;;34.00;30.25;;;;;-147.17;100.00;50288.91;5073595;28;50965;-68
2021/11/09 09:09:03;;;;;;;;;35.25;33.00;;;;;-147.17;100.00;50284.97;5073187;28;53273;-67
2021/11/09 09:11:33;;;;;;;;;44.75;38.75;;;;;-147.17;100.00;50283.00;5073750;28;51521;-67
2021/11/09 09:14:00;;;;;;;;;50.75;40.75;;;;;-147.17;100.00;50265.28;5073002;28;51141;-67
2021/11/09 09:16:27;;;;;;;;;43.75;38.00;;;;;-147.17;100.00;50265.28;5073524;28;51364;-67
2021/11/09 09:18:54;;;;;;;;;44.75;38.25;;;;;-147.17;100.00;50255.44;5054546;28;52246;-68
2021/11/09 09:21:29;;;;;;;;;43.50;38.00;;;;;-147.17;100.00;50271.19;5072627;28;51229;-67
2021/11/09 09:23:59;;;;;;;;;44.00;37.25;;;;;-147.17;100.00;50316.44;5072248;28;51350;-67
2021/11/09 09:55:51;;;;;;;;;37.75;32.00;;;;;-147.17;100.00;50288.91;5075017;28;51252;-66
2021/11/09 09:58:17;;;;;;;;;30.00;27.75;;;;;-147.17;100.00;50275.13;5057152;28;51006;-66
2021/11/09 10:00:44;;;;;;;;;31.50;28.25;;;;;-147.17;100.00;50296.78;5073514;28;51591;-66
2021/11/09 10:03:09;;;;;;;;;26.50;25.00;;;;;-147.17;100.00;50286.94;5076588;27;50980;-66
2021/11/09 10:05:38;;;;;;;;;24.75;23.25;;;;;-147.17;100.00;50296.78;5071458;28;50967;-67
2021/11/09 10:08:22;;;;;;;;;24.00;24.00;;;;;-147.17;100.00;50314.47;5073188;28;51129;-67
2021/11/09 10:10:48;;;;;;;;;28.00;27.75;;;;;-147.17;100.00;50304.66;5072442;28;50989;-67
2021/11/09 10:13:23;;;;;;;;;30.00;27.75;;;;;-147.17;100.00;50279.06;5072471;28;50837;-67
2021/11/09 10:15:54;;;;;;;;;36.50;32.25;;;;;-147.17;100.00;50300.72;5071662;28;50984;-68
2021/11/09 10:18:23;;;;;;;;;36.00;32.00;;;;;-147.17;100.00;50296.78;5072403;28;51188;-67
2021/11/09 10:20:58;;;;;;;;;30.75;29.75;;;;;-147.17;100.00;50273.16;5071427;28;51663;-67
2021/11/09 10:23:27;;;;;;;;;30.75;28.50;;;;;-147.17;100.00;50312.53;5071846;28;50919;-66
2021/11/09 10:25:59;;;;;;;;;38.75;35.25;;;;;-147.17;100.00;50265.28;5071988;28;50970;-66
2021/11/09 10:28:26;;;;;;;;;36.75;34.00;;;;;-147.17;100.00;50302.69;5057717;28;51316;-66
2021/11/09 10:30:58;;;;;;;;;33.50;32.25;;;;;-147.17;100.00;50265.28;5053320;28;53012;-66
2021/11/09 10:33:30;;;;;;;;;35.25;33.25;;;;;-147.17;100.00;50241.66;5071266;28;51062;-66
2021/11/09 10:35:56;;;;;;;;;33.75;32.25;;;;;-147.17;100.00;50312.53;5070762;28;50935;-65
2021/11/09 10:38:29;;;;;;;;;31.00;29.50;;;;;-147.17;100.00;50292.84;5070855;28;51245;-64
2021/11/09 10:40:55;;;;;;;;;34.50;33.00;;;;;-147.17;100.00;50363.69;5070499;28;51118;-68
2021/11/09 10:43:25;;;;;;;;;34.50;30.75;;;;;-147.17;100.00;50328.25;5071737;28;51014;-65
2021/11/09 10:45:52;;;;;;;;;32.75;31.25;;;;;-147.17;100.00;50351.88;5071450;28;51185;-67
2021/11/09 10:48:20;;;;;;;;;34.75;31.75;;;;;-147.17;100.00;50416.84;5053639;28;51342;-65
2021/11/09 10:50:52;;;;;;;;;34.75;32.00;;;;;-147.17;100.00;50462.13;5070241;28;50994;-64
2021/11/09 11:04:05;;;;;;;;;19.25;16.25;;;;;-147.17;100.00;50497.56;5070946;28;51115;-65
2021/11/09 11:06:36;;;;;;;;;17.75;16.75;;;;;-147.17;100.00;50491.66;5070837;28;51000;-66
2021/11/09 11:09:10;;;;;;;;;21.50;19.50;;;;;-147.17;100.00;50456.22;5071058;28;51204;-67
2021/11/09 11:11:45;;;;;;;;;21.75;18.75;;;;;-147.17;100.00;50503.47;5070797;28;51967;-67
2021/11/09 11:14:17;;;;;;;;;23.50;22.25;;;;;-147.17;95.61;50601.91;5070950;28;50959;-67
2021/11/09 11:16:46;;;;;;;;;21.50;19.50;;;;;-147.17;96.89;50580.25;5053448;28;51095;-68
2021/11/09 11:19:21;;;;;;;;;29.25;23.75;;;;;-147.17;94.39;50596.00;5074065;28;51052;-66
2021/11/09 11:21:48;;;;;;;;;19.25;18.25;;;;;-147.17;94.13;50635.38;5074768;28;50994;-66
2021/11/09 11:24:14;;;;;;;;;24.50;23.75;;;;;-147.17;90.59;50680.66;5075310;28;51086;-67
2021/11/09 11:26:42;;;;;;;;;24.75;20.75;;;;;-147.17;89.67;50727.91;5057691;28;51136;-65
2021/11/09 11:29:08;;;;;;;;;20.50;19.25;;;;;-147.17;90.00;50694.44;5075097;28;51419;-66
2021/11/09 11:31:34;;;;;;;;;24.00;22.50;;;;;-147.17;90.58;50690.50;5076615;28;51051;-66
2021/11/09 11:34:01;;;;;;;;;24.00;22.00;;;;;-147.17;90.34;50659.00;5076123;28;51142;-67
2021/11/09 11:36:26;;;;;;;;;23.50;20.00;;;;;-147.17;90.70;50647.19;5073519;28;51231;-67
2021/11/09 11:38:55;;;;;;;;;23.75;22.75;;;;;-147.17;87.27;50702.31;5074503;28;50863;-66
2021/11/09 11:41:23;;;;;;;;;29.25;24.50;;;;;-147.17;87.19;50702.31;5066488;28;51148;-66
2021/11/09 11:43:48;;;;;;;;;23.75;22.25;;;;;-147.17;88.52;50645.22;5057042;28;51039;-67
2021/11/09 11:46:37;;;;;;;;;27.00;25.25;;;;;-147.17;88.98;50647.19;5074038;28;51437;-67
2021/11/09 11:49:10;;;;;;;;;23.75;23.25;;;;;-147.17;88.31;50639.31;5059957;28;51099;-66
2021/11/09 11:52:01;;;;;;;;;28.00;26.75;;;;;-147.17;89.67;50635.38;5067847;28;51314;-67
2021/11/09 11:54:51;;;;;;;;;27.25;26.50;;;;;-147.17;86.66;50688.53;5059362;28;51169;-66
2021/11/09 11:57:52;;;;;;;;;27.50;26.75;;;;;-147.17;87.42;50635.38;5073553;28;50917;-67
2021/11/09 12:00:56;;;;;;;;;32.50;28.75;;;;;-147.17;88.07;50641.28;5073997;28;51265;-67
2021/11/09 12:03:21;;;;;;;;;28.75;27.50;;;;;-147.17;86.66;50676.72;5089677;27;53941;-67
2021/11/09 12:05:49;;;;;;;;;26.75;26.00;;;;;-147.17;86.58;50668.84;5091514;27;51083;-67
2021/11/09 12:08:19;;;;;;;;;26.50;25.00;;;;;-147.17;85.70;50659.00;5072622;28;51101;-68
2021/11/09 12:10:47;;;;;;;;;24.75;23.75;;;;;-147.17;85.97;50710.19;5087927;27;51122;-67
2021/11/09 12:13:14;;;;;;;;;24.00;22.25;;;;;-147.17;85.57;50706.25;5094106;27;53558;-66
2021/11/09 12:15:53;;;;;;;;;25.25;23.00;;;;;-147.17;84.86;50694.44;5093872;27;51023;-66
2021/11/09 12:18:27;;;;;;;;;20.75;20.50;;;;;-147.17;84.92;50722.00;5093615;27;51008;-67
2021/11/09 12:20:53;;;;;;;;;22.25;20.50;;;;;-147.17;84.28;50694.44;5093727;27;50958;-67
2021/11/09 12:23:21;;;;;;;;;18.67;18.67;;;;;-147.17;84.09;50718.06;5093732;27;52205;-67
2021/11/09 12:25:48;;;;;;;;;22.00;20.50;;;;;-147.17;83.27;50735.78;5093593;27;51041;-67
2021/11/09 12:28:16;;;;;;;;;17.67;17.33;;;;;-147.17;82.76;50702.31;5092185;27;51642;-67
2021/11/09 12:30:49;;;;;;;;;17.00;15.33;;;;;-147.17;81.73;50745.63;5093708;27;51064;-67
2021/11/09 12:33:21;;;;;;;;;15.67;12.00;;;;;-147.17;81.18;50769.25;5093924;27;51289;-67
2021/11/09 12:35:48;;;;;;;;;13.33;12.67;;;;;-147.17;81.06;50753.50;5093877;27;51004;-67
2021/11/09 12:38:21;;;;;;;;;14.00;13.33;;;;;-147.17;80.40;50765.31;5093539;27;51181;-67
2021/11/09 12:40:50;;;;;;;;;17.00;15.00;;;;;-147.17;80.82;50753.50;5091931;27;51183;-67
2021/11/09 12:43:16;;;;;;;;;14.67;13.00;;;;;-147.17;81.28;50747.59;5084423;27;52041;-68
2021/11/09 12:46:09;;;;;;;;;14.67;14.00;;;;;-147.17;80.33;50737.75;5090810;27;50944;-68
2021/11/09 12:48:53;;;;;;;;;17.67;16.00;;;;;-147.17;79.19;50773.19;5093685;27;51083;-67
2021/11/09 12:51:21;;;;;;;;;16.00;16.00;;;;;-147.17;77.74;50790.91;5092369;27;51042;-67
2021/11/09 12:53:48;;;;;;;;;16.00;13.67;;;;;-147.17;78.56;50749.56;5093038;27;51891;-68
2021/11/09 12:56:35;;;;;;;;;14.00;12.67;;;;;-147.17;79.12;50720.03;5093509;27;51013;-65
2021/11/09 12:59:08;;;;;;;;;11.67;10.00;;;;;-147.17;77.85;50773.19;5094861;27;51099;-67
2021/11/09 13:09:32;;;;;;;;;11.33;10.00;;;;;-147.17;77.88;50733.81;5094602;27;51088;-67
2021/11/09 13:12:05;;;;;;;;;10.67;9.67;;;;;-147.17;77.06;50759.41;5093799;27;51941;-67
2021/11/09 13:14:39;;;;;;;;;12.67;10.67;;;;;-147.17;76.50;50749.56;5092996;27;51927;-67
2021/11/09 13:17:16;;;;;;;;;9.00;9.00;;;;;-147.17;75.66;50771.22;5093182;27;51004;-67
2021/11/09 13:19:43;;;;;;;;;9.00;8.00;;;;;-147.17;77.59;50765.31;5091596;27;51192;-67
2021/11/09 13:22:18;;;;;;;;;6.00;6.00;;;;;-147.17;78.23;50688.53;5093550;27;51185;-66
2021/11/09 13:24:59;;;;;;;;;7.00;7.00;;;;;-147.17;76.75;50785.00;5092771;27;51837;-67
2021/11/09 13:27:48;;;;;;;;;10.00;8.33;;;;;-147.17;80.01;50659.00;5090480;27;50879;-67
2021/11/09 13:30:23;;;;;;;;;9.33;9.33;;;;;-147.17;77.26;50749.56;5093196;27;51084;-67
2021/11/09 13:32:54;;;;;;;;;9.33;9.00;;;;;-147.17;75.60;50875.56;5092981;27;50987;-68
2021/11/09 13:35:37;;;;;;;;;11.00;10.00;;;;;-147.17;74.12;50875.56;5092155;27;51948;-66
2021/11/09 13:38:22;;;;;;;;;11.67;9.00;;;;;-147.17;71.90;50930.69;5092567;27;50967;-66
2021/11/09 13:40:50;;;;;;;;;12.00;10.00;;;;;-147.17;72.27;50907.06;5091411;27;51142;-67